Terminal Aerodrome Forecast
Issued by NWS

Home | Current Version | Previous Version | Text Only | Print | Product List | Glossary On
Versions: 1 2 3 4 5 6 7 8 9 10 11 12 13 14 15 16
000
FTUS41 KBTV 252113 AAB
TAFRUT
TAF AMD
KRUT 252113Z 2521/2618 15015G25KT P6SM VCSH OVC020
     FM252300 11012G18KT 5SM -SHRA BR OVC015
     FM260500 10010G16KT P6SM -SHRA OVC025
     FM261300 11009KT P6SM VCSH OVC030
     FM261700 11008KT P6SM OVC040=

USA.gov is the U.S. government's official web portal to all federal, state and local government web resources and services.